Cleator, United Kingdom
Current Conditions -  °F | °C
As of 3:50 AM on Wednesday 28 Jan 2015 (Local Time) from EGNS Reporting Station
Overcast Overcast  
Wind Chill: 40°   Ceiling: 1400
Heat Index: 48°   Visibility: 6mi
Dew Point: 46°   Wind: 24mph
Humidity: 93%   Direction: 220°SW
Pressure: 29.56"   Gusts: NA
Location:  54.51°N, 3.53°W
Report Text: EGNS 280350Z 22021KT 9999 FEW004 OVC014 09/08 Q1001
Loading
Personal Weather Stations






























Interactive Weather Map New forecast layout! Learn more

10-Day Weather Forecast

Advertisements
Track Severe Weather on mobile